Time;durP1;ratioP1;P1;durP2;ratioP2;P2;SDS_P1;SDS_P2;PMS_P1;PMS_P2;Temp;Humidity;BMP_temperature;BMP_pressure;BME280_temperature;BME280_humidity;BME280_pressure;Samples;Min_cycle;Max_cycle;Signal;HPM_P1;HPM_P2
2022/09/20 00:01:20;;;;;;;6.65;2.15;;;9.80;99.90;;;;;;5033538;28;20372;-67
2022/09/20 00:03:48;;;;;;;7.03;2.22;;;9.70;99.90;;;;;;5035929;28;20118;-67
2022/09/20 00:06:17;;;;;;;9.18;1.90;;;9.70;99.90;;;;;;5030120;28;20042;-67
2022/09/20 00:08:43;;;;;;;8.40;2.65;;;9.60;99.90;;;;;;5045773;28;20094;-67
2022/09/20 00:11:18;;;;;;;6.07;2.20;;;9.60;99.90;;;;;;5053692;28;20079;-67
2022/09/20 00:13:47;;;;;;;9.60;2.17;;;9.60;99.90;;;;;;5046767;28;20091;-66
2022/09/20 00:16:15;;;;;;;7.75;1.70;;;9.60;99.90;;;;;;5034223;28;20052;-67
2022/09/20 00:18:41;;;;;;;7.45;2.00;;;9.50;99.90;;;;;;5054294;28;20045;-67
2022/09/20 00:21:16;;;;;;;10.80;2.42;;;9.50;99.90;;;;;;5049955;28;20033;-65
2022/09/20 00:23:41;;;;;;;5.38;1.70;;;9.50;99.90;;;;;;5050392;28;20057;-65
2022/09/20 00:26:07;;;;;;;8.48;1.92;;;9.40;99.90;;;;;;5053309;28;20095;-65
2022/09/20 00:28:33;;;;;;;9.88;1.98;;;9.40;99.90;;;;;;5053417;28;20029;-65
2022/09/20 00:30:59;;;;;;;12.18;2.10;;;9.40;99.90;;;;;;5053697;28;20066;-65
2022/09/20 00:35:06;;;;;;;13.63;2.13;;;9.40;99.90;;;;;;5043499;28;20571;-65
2022/09/20 00:36:14;;;;;;;8.07;2.13;;;9.40;99.90;;;;;;5035633;28;20041;-65
2022/09/20 00:38:40;;;;;;;11.07;1.92;;;9.30;99.90;;;;;;5052500;28;20087;-65
2022/09/20 00:41:06;;;;;;;9.20;2.20;;;9.30;99.90;;;;;;5022082;28;20519;-65
2022/09/20 00:43:43;;;;;;;7.97;2.08;;;9.30;99.90;;;;;;5052969;28;20048;-65
2022/09/20 00:46:34;;;;;;;10.65;2.10;;;9.30;99.90;;;;;;5053731;28;20119;-65
2022/09/20 00:49:24;;;;;;;10.40;2.33;;;9.20;99.90;;;;;;5047383;28;20033;-65
2022/09/20 00:52:00;;;;;;;8.90;2.15;;;9.20;99.90;;;;;;5051360;28;20442;-65
2022/09/20 00:54:27;;;;;;;6.65;1.83;;;9.10;99.90;;;;;;5035177;28;20410;-65
2022/09/20 00:56:53;;;;;;;10.35;2.55;;;9.20;99.90;;;;;;5043264;28;20041;-65
2022/09/20 00:59:25;;;;;;;14.32;2.38;;;9.20;99.90;;;;;;5041868;28;20116;-65
2022/09/20 01:01:56;;;;;;;12.38;2.20;;;9.30;99.90;;;;;;5052489;28;20047;-66
2022/09/20 01:04:26;;;;;;;12.70;1.90;;;9.30;99.90;;;;;;5053264;28;20033;-65
2022/09/20 01:06:55;;;;;;;7.38;2.00;;;9.30;99.90;;;;;;5039639;28;20393;-65
2022/09/20 01:09:20;;;;;;;11.30;2.13;;;9.30;99.90;;;;;;5041291;28;20725;-65
2022/09/20 01:11:48;;;;;;;8.23;2.20;;;9.20;99.90;;;;;;5052313;28;20037;-65
2022/09/20 01:14:15;;;;;;;11.57;2.30;;;9.10;99.90;;;;;;5042670;28;20487;-65
2022/09/20 01:16:41;;;;;;;11.15;2.60;;;9.00;99.90;;;;;;5051211;28;20084;-65
2022/09/20 01:19:36;;;;;;;8.43;2.13;;;9.00;99.90;;;;;;5053305;28;20464;-65
2022/09/20 01:22:07;;;;;;;7.13;2.05;;;9.00;99.90;;;;;;5045853;28;20045;-65
2022/09/20 01:24:32;;;;;;;11.13;2.10;;;9.00;99.90;;;;;;5032160;28;20045;-65
2022/09/20 01:27:33;;;;;;;10.43;2.47;;;9.00;99.90;;;;;;5052408;28;20357;-65
2022/09/20 01:30:17;;;;;;;6.85;2.08;;;9.00;99.90;;;;;;5032206;28;20118;-65
2022/09/20 01:33:07;;;;;;;11.35;2.10;;;9.00;99.90;;;;;;5029249;28;20479;-65
2022/09/20 01:35:35;;;;;;;9.60;2.13;;;9.00;99.90;;;;;;5052754;28;20049;-65
2022/09/20 01:38:16;;;;;;;7.82;2.50;;;8.90;99.90;;;;;;5046048;28;20388;-64
2022/09/20 01:40:56;;;;;;;10.43;2.43;;;8.90;99.90;;;;;;5028792;28;20109;-65
2022/09/20 01:43:22;;;;;;;7.78;2.17;;;8.90;99.90;;;;;;5052356;28;20041;-65
2022/09/20 01:45:48;;;;;;;7.03;2.10;;;8.90;99.90;;;;;;5047609;28;20052;-65
2022/09/20 01:48:37;;;;;;;10.35;2.10;;;8.90;99.90;;;;;;5016446;28;20042;-64
2022/09/20 01:51:40;;;;;;;8.75;2.05;;;8.80;99.90;;;;;;5045236;28;20502;-67
2022/09/20 01:54:38;;;;;;;8.75;1.98;;;8.80;99.90;;;;;;5049259;28;20440;-65
2022/09/20 01:57:33;;;;;;;8.50;2.28;;;8.80;99.90;;;;;;5045617;28;20045;-65
2022/09/20 02:00:05;;;;;;;8.13;2.20;;;8.80;99.90;;;;;;5052118;28;20112;-65
2022/09/20 02:02:49;;;;;;;;;;;8.80;99.90;;;;;;5030314;28;20231;-65
2022/09/20 02:05:44;;;;;;;8.43;2.22;;;8.80;99.90;;;;;;5048368;28;19917;-65
2022/09/20 02:08:25;;;;;;;9.00;2.20;;;8.80;99.90;;;;;;4979982;28;20057;-65
2022/09/20 02:11:03;;;;;;;9.60;2.50;;;8.80;99.90;;;;;;5051634;28;20055;-65
2022/09/20 02:13:49;;;;;;;10.18;2.80;;;8.80;99.90;;;;;;5042203;28;20049;-65
2022/09/20 02:16:18;;;;;;;7.05;2.40;;;8.80;99.90;;;;;;5028737;28;20036;-65
2022/09/20 02:19:08;;;;;;;8.40;2.42;;;8.80;99.90;;;;;;5051598;28;20041;-65
2022/09/20 02:21:51;;;;;;;8.68;2.70;;;8.90;99.90;;;;;;5039808;28;20038;-65
2022/09/20 02:24:37;;;;;;;9.00;2.10;;;8.90;99.90;;;;;;5051404;28;20056;-65
2022/09/20 02:27:24;;;;;;;7.32;2.40;;;8.90;99.90;;;;;;5033807;28;20553;-65
2022/09/20 02:29:59;;;;;;;11.68;2.10;;;8.90;99.90;;;;;;5047958;28;20029;-65
2022/09/20 02:32:56;;;;;;;15.45;2.40;;;9.00;99.90;;;;;;5033435;28;20155;-65
2022/09/20 02:35:39;;;;;;;7.75;2.22;;;9.00;99.90;;;;;;5051521;28;20578;-65
2022/09/20 02:38:23;;;;;;;7.82;2.08;;;9.00;99.90;;;;;;5035419;28;20068;-65
2022/09/20 02:40:54;;;;;;;8.18;1.98;;;8.90;99.90;;;;;;5032522;28;20033;-65
2022/09/20 02:43:34;;;;;;;10.10;2.47;;;9.00;99.90;;;;;;5033551;28;20047;-65
2022/09/20 02:46:34;;;;;;;8.70;2.38;;;9.00;99.90;;;;;;5028338;28;20047;-65
2022/09/20 02:49:18;;;;;;;9.23;2.50;;;9.00;99.90;;;;;;5044179;28;20116;-65
2022/09/20 02:52:10;;;;;;;11.38;2.50;;;9.00;99.90;;;;;;5050423;28;20040;-65
2022/09/20 02:54:54;;;;;;;7.13;2.15;;;9.00;99.90;;;;;;5041685;28;20087;-65
2022/09/20 02:57:32;;;;;;;12.77;2.70;;;9.00;99.90;;;;;;5050559;28;20048;-65
2022/09/20 03:00:03;;;;;;;8.95;2.70;;;8.90;99.90;;;;;;5051298;28;20499;-65
2022/09/20 03:03:02;;;;;;;10.95;2.65;;;8.90;99.90;;;;;;5026086;28;20555;-65
2022/09/20 03:05:45;;;;;;;8.45;2.60;;;8.90;99.90;;;;;;5029552;28;20076;-65
2022/09/20 03:08:27;;;;;;;6.90;2.05;;;8.80;99.90;;;;;;5050693;28;20445;-65
2022/09/20 03:10:56;;;;;;;8.02;2.25;;;8.80;99.90;;;;;;5026716;28;20086;-65
2022/09/20 03:13:28;;;;;;;10.13;2.08;;;8.80;99.90;;;;;;5050105;28;20087;-65
2022/09/20 03:16:20;;;;;;;8.75;2.30;;;8.80;99.90;;;;;;5051178;28;20052;-65
2022/09/20 03:19:04;;;;;;;8.77;2.50;;;8.60;99.90;;;;;;5030048;28;20461;-65
2022/09/20 03:21:53;;;;;;;10.30;2.25;;;8.60;99.90;;;;;;5026581;28;20074;-65
2022/09/20 03:24:28;;;;;;;8.30;2.58;;;8.50;99.90;;;;;;5050278;28;20047;-65
2022/09/20 03:27:12;;;;;;;14.60;2.70;;;8.50;99.90;;;;;;5012397;28;20052;-65
2022/09/20 03:29:58;;;;;;;16.17;3.00;;;8.40;99.90;;;;;;5037611;28;20053;-65
2022/09/20 03:32:44;;;;;;;8.50;2.65;;;8.40;99.90;;;;;;5049528;28;20388;-65
2022/09/20 03:35:28;;;;;;;14.65;3.00;;;8.40;99.90;;;;;;5050377;28;20380;-65
2022/09/20 03:38:21;;;;;;;9.73;2.85;;;8.40;99.90;;;;;;5049925;28;20071;-65
2022/09/20 03:41:15;;;;;;;12.88;2.70;;;8.40;99.90;;;;;;5040317;28;20032;-65
2022/09/20 03:43:57;;;;;;;8.48;2.28;;;8.40;99.90;;;;;;5025245;28;20061;-65
2022/09/20 03:46:27;;;;;;;7.57;2.78;;;8.50;99.90;;;;;;5048662;28;20052;-65
2022/09/20 03:49:27;;;;;;;11.40;3.07;;;8.50;99.90;;;;;;5032798;28;20037;-65
2022/09/20 03:52:26;;;;;;;8.43;2.40;;;8.50;99.90;;;;;;5039932;28;20087;-65
2022/09/20 03:55:14;;;;;;;8.73;2.30;;;8.50;99.90;;;;;;5037895;28;20051;-65
2022/09/20 03:58:10;;;;;;;10.43;2.50;;;8.60;99.90;;;;;;5028449;28;20049;-65
2022/09/20 04:00:55;;;;;;;7.57;2.30;;;8.60;99.90;;;;;;5041072;28;20068;-65
2022/09/20 04:03:31;;;;;;;9.63;2.95;;;8.60;99.90;;;;;;5046234;28;20048;-65
2022/09/20 04:06:05;;;;;;;10.70;2.70;;;8.60;99.90;;;;;;5032273;28;20049;-65
2022/09/20 04:08:50;;;;;;;7.60;2.60;;;8.50;99.90;;;;;;5024289;28;20102;-65
2022/09/20 04:11:27;;;;;;;9.93;2.58;;;8.50;99.90;;;;;;5049194;28;20119;-65
2022/09/20 04:14:10;;;;;;;8.75;2.88;;;8.50;99.90;;;;;;5032423;28;20108;-65
2022/09/20 04:17:14;;;;;;;10.38;2.63;;;8.50;99.90;;;;;;5036091;28;20048;-65
2022/09/20 04:19:46;;;;;;;5.95;2.10;;;8.50;99.90;;;;;;5049232;28;20554;-65
2022/09/20 04:22:12;;;;;;;;;;;8.60;99.90;;;;;;5032057;28;20119;-65
2022/09/20 04:24:52;;;;;;;7.90;2.78;;;8.60;99.90;;;;;;5025467;28;19996;-65
2022/09/20 04:27:28;;;;;;;7.63;2.13;;;8.70;99.90;;;;;;5031370;28;20037;-65
2022/09/20 04:30:06;;;;;;;8.80;2.33;;;8.60;99.90;;;;;;5030211;28;20037;-65
2022/09/20 04:32:42;;;;;;;8.65;2.70;;;8.60;99.90;;;;;;5027672;28;20033;-65
2022/09/20 04:38:11;;;;;;;10.43;2.42;;;8.60;99.90;;;;;;5031873;28;20045;-65
2022/09/20 04:41:06;;;;;;;12.02;2.80;;;8.60;99.90;;;;;;5052277;28;20079;-65
2022/09/20 04:44:16;;;;;;;10.43;2.50;;;8.70;99.90;;;;;;5040317;28;20091;-65
2022/09/20 04:47:20;;;;;;;10.00;3.55;;;8.80;99.90;;;;;;4988750;28;20249;-65
2022/09/20 04:50:05;;;;;;;11.27;2.80;;;8.80;99.90;;;;;;5032614;28;20125;-65
2022/09/20 04:52:49;;;;;;;9.95;2.38;;;8.80;99.90;;;;;;5032178;28;20063;-65
2022/09/20 04:55:45;;;;;;;7.38;3.10;;;8.80;99.90;;;;;;5041451;28;20091;-65
2022/09/20 04:58:22;;;;;;;6.85;2.40;;;8.80;99.90;;;;;;5029997;28;20067;-67
2022/09/20 05:01:06;;;;;;;6.50;2.45;;;8.90;99.90;;;;;;5052928;28;20147;-66
2022/09/20 05:03:35;;;;;;;8.20;2.70;;;8.90;99.90;;;;;;5047699;28;20380;-67
2022/09/20 05:06:18;;;;;;;7.10;2.60;;;9.00;99.90;;;;;;5050039;28;20163;-67
2022/09/20 05:09:38;;;;;;;5.68;2.35;;;9.10;99.90;;;;;;5041558;28;20122;-67
2022/09/20 05:12:33;;;;;;;8.05;2.35;;;9.30;99.90;;;;;;4949085;28;20046;-66
2022/09/20 05:15:37;;;;;;;5.95;2.42;;;9.40;99.90;;;;;;5049940;28;20052;-67
2022/09/20 05:18:33;;;;;;;8.73;2.60;;;9.60;99.90;;;;;;5049520;28;20060;-67
2022/09/20 05:21:45;;;;;;;5.50;2.30;;;9.70;99.90;;;;;;5015189;28;20159;-66
2022/09/20 05:24:37;;;;;;;5.60;2.20;;;9.80;99.90;;;;;;4975016;28;20077;-66
2022/09/20 05:27:03;;;;;;;;;;;9.90;99.90;;;;;;4961815;28;20125;-66
2022/09/20 05:29:41;;;;;;;6.07;2.35;;;9.90;99.90;;;;;;5030309;28;19930;-66
2022/09/20 05:32:34;;;;;;;7.47;2.80;;;9.90;99.90;;;;;;5021668;28;20443;-64
2022/09/20 05:35:11;;;;;;;7.63;2.28;;;9.90;99.90;;;;;;5051456;28;20041;-67
2022/09/20 05:38:09;;;;;;;8.35;2.25;;;9.90;99.90;;;;;;5052485;28;20442;-66
2022/09/20 05:41:00;;;;;;;5.70;2.25;;;9.90;99.90;;;;;;5026440;28;20049;-67
2022/09/20 05:43:34;;;;;;;9.57;2.50;;;9.90;99.90;;;;;;5031123;28;20540;-65
2022/09/20 05:46:36;;;;;;;8.80;2.65;;;9.90;99.90;;;;;;5032538;28;20492;-66
2022/09/20 05:49:25;;;;;;;8.70;2.50;;;9.90;99.90;;;;;;5036039;28;20048;-67
2022/09/20 05:52:42;;;;;;;7.55;2.53;;;9.90;99.90;;;;;;5026362;28;20445;-67
2022/09/20 05:55:29;;;;;;;7.78;2.55;;;9.80;99.90;;;;;;4991475;28;20059;-67
2022/09/20 05:58:10;;;;;;;7.72;2.17;;;9.70;99.90;;;;;;5045465;28;20067;-67
2022/09/20 06:00:47;;;;;;;6.40;2.20;;;9.70;99.90;;;;;;5033704;28;20041;-66
2022/09/20 06:03:36;;;;;;;8.50;2.38;;;9.80;99.90;;;;;;5052161;28;20120;-67
2022/09/20 06:06:20;;;;;;;8.93;2.25;;;9.70;99.90;;;;;;5044135;28;20668;-66
2022/09/20 06:09:24;;;;;;;13.18;2.80;;;9.80;99.90;;;;;;5031093;28;20044;-66
2022/09/20 06:12:05;;;;;;;7.85;2.58;;;9.80;99.90;;;;;;5051061;28;20049;-66
2022/09/20 06:14:49;;;;;;;10.65;2.70;;;9.90;99.90;;;;;;5044812;28;20033;-66
2022/09/20 06:17:35;;;;;;;10.88;2.60;;;10.00;99.90;;;;;;5028920;28;20041;-66
2022/09/20 06:20:25;;;;;;;7.28;2.40;;;10.20;99.90;;;;;;5034174;28;21796;-68
2022/09/20 06:22:54;;;;;;;8.40;2.72;;;10.20;99.90;;;;;;5037186;28;20044;-68
2022/09/20 06:25:33;;;;;;;9.52;2.50;;;10.30;99.90;;;;;;5047370;28;20041;-67
2022/09/20 06:28:16;;;;;;;13.27;2.85;;;10.40;99.90;;;;;;5048700;28;20041;-67
2022/09/20 06:30:47;;;;;;;10.15;2.80;;;10.40;99.90;;;;;;5020248;28;20124;-67
2022/09/20 06:33:19;;;;;;;10.88;2.70;;;10.50;99.90;;;;;;5047850;28;20094;-67
2022/09/20 06:35:54;;;;;;;9.48;2.90;;;10.50;99.90;;;;;;5051426;28;21079;-67
2022/09/20 06:41:27;;;;;;;;;;;10.60;99.90;;;;;;5046292;28;20080;-70
2022/09/20 06:43:59;;;;;;;;;;;10.70;99.90;;;;;;5050145;28;20019;-67
2022/09/20 06:46:30;;;;;;;7.18;2.60;;;10.70;99.90;;;;;;5039774;28;19971;-68
2022/09/20 06:48:56;;;;;;;4.82;2.38;;;10.80;99.90;;;;;;5042104;28;20147;-68
2022/09/20 06:51:24;;;;;;;5.03;2.55;;;10.80;99.90;;;;;;5035061;28;20033;-68
2022/09/20 06:53:50;;;;;;;15.55;2.88;;;10.90;99.90;;;;;;5050114;28;20060;-69
2022/09/20 06:56:22;;;;;;;10.05;2.83;;;11.00;99.90;;;;;;5032679;28;20052;-69
2022/09/20 06:58:48;;;;;;;6.22;2.67;;;11.10;99.90;;;;;;5050907;28;20036;-68
2022/09/20 07:01:14;;;;;;;8.32;2.70;;;11.10;99.90;;;;;;5039802;28;20475;-69
2022/09/20 07:03:41;;;;;;;8.52;2.65;;;11.20;99.90;;;;;;5042216;28;20032;-68
2022/09/20 07:06:08;;;;;;;5.32;2.35;;;11.20;99.90;;;;;;5050338;28;20403;-68
2022/09/20 07:08:34;;;;;;;10.10;2.90;;;11.20;99.90;;;;;;5049989;28;20040;-66
2022/09/20 07:11:11;;;;;;;6.43;2.53;;;11.20;99.90;;;;;;5046215;28;20043;-67
2022/09/20 07:13:36;;;;;;;4.80;2.55;;;11.20;99.90;;;;;;5048054;28;20159;-68
2022/09/20 07:16:07;;;;;;;7.72;3.25;;;11.20;99.90;;;;;;5050329;28;20127;-67
2022/09/20 07:18:33;;;;;;;8.82;2.83;;;11.30;99.90;;;;;;5050325;28;20037;-69
2022/09/20 07:21:00;;;;;;;10.68;2.58;;;11.20;99.90;;;;;;5040308;28;20372;-67
2022/09/20 07:23:28;;;;;;;4.82;2.75;;;11.20;99.90;;;;;;5047596;28;20048;-66
2022/09/20 07:25:57;;;;;;;10.98;2.75;;;11.30;99.90;;;;;;5032305;28;20052;-67
2022/09/20 07:28:22;;;;;;;10.18;2.90;;;11.30;99.90;;;;;;5043075;28;20130;-67
2022/09/20 07:30:48;;;;;;;14.45;3.33;;;11.30;99.90;;;;;;5043111;28;20502;-67
2022/09/20 07:33:21;;;;;;;7.53;2.97;;;11.30;99.90;;;;;;5049986;28;20094;-67
2022/09/20 07:35:53;;;;;;;6.70;3.10;;;11.30;99.90;;;;;;5046680;28;20052;-67
2022/09/20 07:38:19;;;;;;;8.50;3.30;;;11.30;99.90;;;;;;5048841;28;20065;-68
2022/09/20 07:40:45;;;;;;;6.43;2.85;;;11.30;99.90;;;;;;5048695;28;20449;-67
2022/09/20 07:43:11;;;;;;;9.13;3.33;;;11.30;99.90;;;;;;5042282;28;20115;-66
2022/09/20 07:45:38;;;;;;;9.40;3.65;;;11.40;99.90;;;;;;5049452;28;20498;-67
2022/09/20 07:48:07;;;;;;;7.60;3.13;;;11.40;99.90;;;;;;5031524;28;20048;-66
2022/09/20 07:50:34;;;;;;;10.02;3.30;;;11.40;99.90;;;;;;5044771;28;20033;-67
2022/09/20 07:53:00;;;;;;;11.23;3.67;;;11.50;99.90;;;;;;5036008;28;20373;-67
2022/09/20 07:55:26;;;;;;;9.60;3.50;;;11.70;99.90;;;;;;5049296;28;20052;-65
2022/09/20 07:57:53;;;;;;;8.23;3.30;;;11.80;99.90;;;;;;5049941;28;20041;-67
2022/09/20 08:00:18;;;;;;;9.80;3.53;;;11.90;99.90;;;;;;5050276;28;20037;-66
2022/09/20 08:02:44;;;;;;;11.68;4.13;;;12.10;99.90;;;;;;5043696;28;20033;-66
2022/09/20 08:05:10;;;;;;;13.23;3.35;;;12.30;99.90;;;;;;5048231;28;20036;-66
2022/09/20 08:07:37;;;;;;;10.00;3.60;;;12.40;99.90;;;;;;5031985;28;20055;-66
2022/09/20 08:10:04;;;;;;;7.68;3.05;;;12.50;99.90;;;;;;5045338;28;20064;-66
2022/09/20 08:12:29;;;;;;;6.00;2.70;;;12.60;99.90;;;;;;5043553;28;20072;-66
2022/09/20 08:14:55;;;;;;;7.82;2.58;;;12.70;99.90;;;;;;5033373;28;20515;-67
2022/09/20 08:17:21;;;;;;;7.85;2.25;;;12.80;99.90;;;;;;5053709;28;20124;-66
2022/09/20 08:19:46;;;;;;;9.68;1.92;;;13.00;99.90;;;;;;5044819;28;20037;-66
2022/09/20 08:22:12;;;;;;;7.00;1.88;;;13.10;99.90;;;;;;5028506;28;20564;-66
2022/09/20 08:24:38;;;;;;;5.57;2.30;;;13.20;99.90;;;;;;5050444;28;20051;-66
2022/09/20 08:27:04;;;;;;;6.45;1.40;;;13.20;99.90;;;;;;5038799;28;20033;-66
2022/09/20 08:29:30;;;;;;;3.80;1.70;;;13.30;99.90;;;;;;5025725;28;20036;-66
2022/09/20 08:31:57;;;;;;;5.82;1.48;;;13.30;99.90;;;;;;5049522;28;20040;-67
2022/09/20 08:34:23;;;;;;;7.75;1.70;;;13.40;99.90;;;;;;5051136;28;20064;-66
2022/09/20 08:36:50;;;;;;;8.55;1.63;;;13.50;99.90;;;;;;5048469;28;20029;-67
2022/09/20 08:39:17;;;;;;;8.82;1.55;;;13.50;99.90;;;;;;5027220;28;20526;-66
2022/09/20 08:41:55;;;;;;;5.30;1.30;;;13.60;99.90;;;;;;5051038;28;20041;-66
2022/09/20 08:44:34;;;;;;;7.07;1.60;;;13.70;99.90;;;;;;5027850;28;20049;-66
2022/09/20 08:47:14;;;;;;;5.50;1.50;;;13.80;99.90;;;;;;5050074;28;20059;-66
2022/09/20 08:49:40;;;;;;;3.38;1.13;;;13.80;99.90;;;;;;5044299;28;20032;-66
2022/09/20 08:52:06;;;;;;;4.82;1.20;;;13.90;99.90;;;;;;5048882;28;20029;-66
2022/09/20 08:54:34;;;;;;;5.28;1.10;;;13.80;99.90;;;;;;5034373;28;20048;-65
2022/09/20 08:57:11;;;;;;;4.90;1.45;;;13.80;99.90;;;;;;5049619;28;20041;-66
2022/09/20 08:59:37;;;;;;;2.88;1.25;;;13.90;99.90;;;;;;5045422;28;20399;-66
2022/09/20 09:02:07;;;;;;;2.72;1.30;;;13.90;99.90;;;;;;5043302;28;20047;-67
2022/09/20 09:04:36;;;;;;;8.00;1.48;;;13.90;99.90;;;;;;5053450;28;20491;-66
2022/09/20 09:07:03;;;;;;;5.60;1.30;;;13.90;99.90;;;;;;5032409;28;20048;-66
2022/09/20 09:09:29;;;;;;;8.90;1.13;;;13.80;99.90;;;;;;5049368;28;20044;-66
2022/09/20 09:11:57;;;;;;;5.32;1.27;;;13.90;99.90;;;;;;5048236;28;20037;-67
2022/09/20 09:17:11;;;;;;;3.20;1.15;;;13.80;99.90;;;;;;5049606;28;20049;-67
2022/09/20 09:19:58;;;;;;;4.10;1.35;;;13.80;99.90;;;;;;5052247;28;20033;-67
2022/09/20 09:22:39;;;;;;;3.97;1.25;;;13.80;99.90;;;;;;5050988;28;20086;-67
2022/09/20 09:25:33;;;;;;;6.72;1.40;;;13.80;99.90;;;;;;5048773;28;20125;-67
2022/09/20 09:28:08;;;;;;;2.33;0.70;;;13.90;99.90;;;;;;5048180;28;20063;-67
2022/09/20 09:30:41;;;;;;;4.57;1.00;;;13.90;99.90;;;;;;5052250;28;20075;-67
2022/09/20 09:33:27;;;;;;;3.72;1.27;;;13.80;99.90;;;;;;5045916;28;20270;-67
2022/09/20 09:35:57;;;;;;;5.25;1.10;;;13.80;99.90;;;;;;5036420;28;20044;-66
2022/09/20 09:38:26;;;;;;;4.95;0.73;;;13.80;99.90;;;;;;5052344;28;20067;-67
2022/09/20 09:40:54;;;;;;;5.13;1.27;;;13.80;99.90;;;;;;5051958;28;20752;-65
2022/09/20 09:43:25;;;;;;;5.55;1.17;;;13.90;99.90;;;;;;5035381;28;20094;-67
2022/09/20 09:45:52;;;;;;;5.75;1.20;;;14.00;99.90;;;;;;5045865;28;20037;-66
2022/09/20 09:48:30;;;;;;;4.20;1.35;;;14.00;99.90;;;;;;5052302;28;20041;-67
2022/09/20 09:51:17;;;;;;;7.25;2.53;;;14.10;99.90;;;;;;5038355;28;20041;-67
2022/09/20 09:53:44;;;;;;;3.08;1.00;;;14.10;99.90;;;;;;5049820;28;20040;-67
2022/09/20 09:56:26;;;;;;;2.80;1.10;;;14.20;99.90;;;;;;5051817;28;20534;-66
2022/09/20 09:59:09;;;;;;;3.85;1.48;;;14.30;99.90;;;;;;5047248;28;20032;-67
2022/09/20 10:01:50;;;;;;;4.00;1.05;;;14.40;99.90;;;;;;5050733;28;20048;-68
2022/09/20 10:04:44;;;;;;;5.70;1.17;;;14.40;99.90;;;;;;5052271;28;20040;-67
2022/09/20 10:07:27;;;;;;;5.13;1.33;;;14.50;99.90;;;;;;5043120;28;20475;-68
2022/09/20 10:10:31;;;;;;;2.83;1.00;;;14.60;99.90;;;;;;5048099;28;20032;-66
2022/09/20 10:13:27;;;;;;;6.90;1.50;;;14.60;99.90;;;;;;5051660;28;20064;-66
2022/09/20 10:16:34;;;;;;;8.30;1.70;;;14.60;99.90;;;;;;5044750;28;20434;-66
2022/09/20 10:19:09;;;;;;;3.60;1.10;;;14.70;99.90;;;;;;5043972;28;20495;-66
2022/09/20 10:21:51;;;;;;;4.90;1.30;;;14.70;99.90;;;;;;5041872;28;20041;-66
2022/09/20 10:24:22;;;;;;;;;;;14.80;99.90;;;;;;5019228;28;20172;-67
2022/09/20 10:26:47;;;;;;;3.85;1.27;;;14.90;99.90;;;;;;5037446;28;19928;-66
2022/09/20 10:29:31;;;;;;;5.70;1.40;;;15.10;99.90;;;;;;5051382;28;20040;-66
2022/09/20 10:32:31;;;;;;;4.85;1.17;;;15.40;99.90;;;;;;5033382;28;20041;-67
2022/09/20 10:35:05;;;;;;;5.47;1.20;;;15.60;99.90;;;;;;5036243;28;20376;-67
2022/09/20 10:38:04;;;;;;;5.18;1.20;;;15.80;99.90;;;;;;5048180;28;20055;-67
2022/09/20 10:43:52;;;;;;;3.55;1.10;;;15.80;99.90;;;;;;5050840;28;20048;-67
2022/09/20 10:46:34;;;;;;;6.25;1.20;;;16.00;99.90;;;;;;5051313;28;20454;-66
2022/09/20 10:49:23;;;;;;;4.40;1.10;;;16.30;99.90;;;;;;5044206;28;20065;-66
2022/09/20 10:52:07;;;;;;;3.58;1.05;;;16.20;99.90;;;;;;5028892;28;20051;-66
2022/09/20 10:54:42;;;;;;;6.38;0.90;;;16.10;99.90;;;;;;5051197;28;20041;-67
2022/09/20 10:57:44;;;;;;;3.40;0.90;;;15.50;99.90;;;;;;5045485;28;20048;-66
2022/09/20 11:00:25;;;;;;;;;;;14.90;99.90;;;;;;5050241;28;20068;-66
2022/09/20 11:03:14;;;;;;;3.92;0.75;;;14.40;99.90;;;;;;5050719;28;20374;-66
2022/09/20 11:06:20;;;;;;;2.92;0.80;;;14.00;99.90;;;;;;5045610;28;20044;-67
2022/09/20 11:08:50;;;;;;;6.18;1.20;;;13.80;99.90;;;;;;5048026;28;20653;-66
2022/09/20 11:11:24;;;;;;;3.15;1.23;;;13.60;99.90;;;;;;5048781;28;20060;-65
2022/09/20 11:14:11;;;;;;;3.95;1.10;;;13.50;99.90;;;;;;5041477;28;20094;-67
2022/09/20 11:16:48;;;;;;;4.68;1.48;;;13.60;99.90;;;;;;5040072;28;20040;-67
2022/09/20 11:19:22;;;;;;;3.40;1.00;;;13.70;99.90;;;;;;5050328;28;20051;-66
2022/09/20 11:21:51;;;;;;;3.80;1.30;;;13.80;99.90;;;;;;5047691;28;20041;-66
2022/09/20 11:24:33;;;;;;;13.35;2.63;;;13.90;99.90;;;;;;5017979;28;20037;-66
2022/09/20 11:27:05;;;;;;;5.35;1.08;;;14.10;99.90;;;;;;5032319;28;20039;-66
2022/09/20 11:29:41;;;;;;;3.47;1.00;;;14.20;99.90;;;;;;5028396;28;20079;-67
2022/09/20 11:32:16;;;;;;;6.70;1.63;;;14.40;99.90;;;;;;5047331;28;20029;-66
2022/09/20 11:35:01;;;;;;;1.33;0.80;;;14.60;99.90;;;;;;5051814;28;20083;-67
2022/09/20 11:37:32;;;;;;;2.05;0.80;;;14.70;99.90;;;;;;5051701;28;20041;-67
2022/09/20 11:40:11;;;;;;;1.25;0.70;;;14.70;99.90;;;;;;5041412;28;20055;-67
2022/09/20 11:42:40;;;;;;;1.98;0.85;;;14.70;99.90;;;;;;5042803;28;20041;-67
2022/09/20 11:45:06;;;;;;;4.05;1.10;;;14.80;99.90;;;;;;5045251;28;20060;-67
2022/09/20 11:47:37;;;;;;;2.60;1.10;;;14.90;99.90;;;;;;5029995;28;20038;-66
2022/09/20 11:50:11;;;;;;;9.57;2.05;;;14.80;99.90;;;;;;5049420;28;20440;-66
2022/09/20 11:53:04;;;;;;;5.00;0.90;;;14.90;99.90;;;;;;5050877;28;20041;-65
2022/09/20 11:55:59;;;;;;;2.90;1.00;;;15.00;99.90;;;;;;5045503;28;20487;-66
2022/09/20 11:58:26;;;;;;;2.33;0.70;;;15.00;99.90;;;;;;5050821;28;20534;-66
2022/09/20 12:00:55;;;;;;;5.72;1.30;;;15.20;99.90;;;;;;5022351;28;20131;-65
2022/09/20 12:03:38;;;;;;;3.83;1.00;;;15.30;99.90;;;;;;5042058;28;20353;-66
2022/09/20 12:06:05;;;;;;;7.50;1.20;;;15.30;99.90;;;;;;5046752;28;20045;-65
2022/09/20 12:08:37;;;;;;;3.53;1.20;;;15.30;99.90;;;;;;5032902;28;20392;-66
2022/09/20 12:11:09;;;;;;;4.03;1.00;;;15.30;99.90;;;;;;5050665;28;20037;-66
2022/09/20 12:13:41;;;;;;;3.60;0.95;;;15.30;99.90;;;;;;5036127;28;20492;-66
2022/09/20 12:16:43;;;;;;;2.63;0.90;;;15.40;99.90;;;;;;5043922;28;20452;-66
2022/09/20 12:19:10;;;;;;;5.30;1.20;;;15.50;99.90;;;;;;5041887;28;20045;-66
2022/09/20 12:21:57;;;;;;;3.13;1.30;;;15.60;99.90;;;;;;5077326;22;20068;-66
2022/09/20 12:24:28;;;;;;;4.20;1.13;;;15.60;99.90;;;;;;5049738;28;20033;-66
2022/09/20 12:27:21;;;;;;;3.70;1.20;;;15.60;99.90;;;;;;5049028;28;20037;-66
2022/09/20 12:29:46;;;;;;;4.68;1.50;;;15.60;99.90;;;;;;5013009;28;20049;-65
2022/09/20 12:32:40;;;;;;;5.22;1.55;;;15.80;99.90;;;;;;5016133;28;20044;-65
2022/09/20 12:35:43;;;;;;;3.40;1.40;;;15.80;99.90;;;;;;5027191;28;20040;-66
2022/09/20 12:38:27;;;;;;;6.32;1.63;;;15.90;99.90;;;;;;5022905;28;20064;-66
2022/09/20 12:41:04;;;;;;;5.90;1.40;;;15.90;99.90;;;;;;5030921;28;20041;-66
2022/09/20 12:43:31;;;;;;;3.45;1.33;;;15.90;99.90;;;;;;5027468;28;20041;-66
2022/09/20 12:45:58;;;;;;;5.05;1.30;;;16.10;99.90;;;;;;5028808;28;20040;-65
2022/09/20 12:48:24;;;;;;;6.45;1.30;;;16.20;99.90;;;;;;5026984;28;20048;-66
2022/09/20 12:54:06;;;;;;;3.75;1.20;;;16.40;99.90;;;;;;5029939;28;20033;-66
2022/09/20 12:56:35;;;;;;;4.93;1.30;;;16.50;99.90;;;;;;5031426;28;20072;-66
2022/09/20 12:59:04;;;;;;;2.75;1.05;;;16.60;99.90;;;;;;5031001;28;20033;-66
2022/09/20 13:01:36;;;;;;;5.55;1.10;;;16.60;99.90;;;;;;5030301;28;20048;-66
2022/09/20 13:04:40;;;;;;;4.43;1.15;;;17.00;99.90;;;;;;5013704;28;20388;-66
2022/09/20 13:07:31;;;;;;;3.70;1.25;;;17.20;99.90;;;;;;5024312;28;20045;-66
2022/09/20 13:10:00;;;;;;;6.78;1.20;;;17.10;99.90;;;;;;5032775;28;20037;-66
2022/09/20 13:12:26;;;;;;;3.42;1.08;;;16.90;99.90;;;;;;5037419;28;20037;-66
2022/09/20 13:14:53;;;;;;;4.80;1.08;;;16.60;99.90;;;;;;5032082;28;20496;-66
2022/09/20 13:17:26;;;;;;;4.20;1.10;;;16.40;99.90;;;;;;5029757;28;20061;-66
2022/09/20 13:19:53;;;;;;;5.40;1.17;;;16.10;99.90;;;;;;5023870;28;20048;-66
2022/09/20 13:22:27;;;;;;;6.07;1.15;;;15.90;99.90;;;;;;5031873;28;20073;-66
2022/09/20 13:24:59;;;;;;;3.50;1.23;;;15.80;99.90;;;;;;5015719;28;20057;-65
2022/09/20 13:27:48;;;;;;;4.70;0.95;;;15.80;99.90;;;;;;5039568;28;20093;-66
2022/09/20 13:30:25;;;;;;;7.53;1.20;;;15.80;99.90;;;;;;5036928;28;20083;-65
2022/09/20 13:32:51;;;;;;;4.25;1.48;;;15.80;99.90;;;;;;5032284;28;20516;-65
2022/09/20 13:35:18;;;;;;;3.83;0.95;;;15.90;99.90;;;;;;5039196;28;20075;-65
2022/09/20 13:37:43;;;;;;;5.97;1.05;;;16.00;99.90;;;;;;5031937;28;20053;-65
2022/09/20 13:40:24;;;;;;;2.97;1.20;;;16.00;99.90;;;;;;5032483;28;20226;-66
2022/09/20 13:42:52;;;;;;;4.80;1.10;;;16.10;99.90;;;;;;5028267;28;20041;-66
2022/09/20 13:45:20;;;;;;;3.75;0.88;;;16.40;99.90;;;;;;5030319;28;20083;-66
2022/09/20 13:47:52;;;;;;;5.38;1.17;;;16.70;99.90;;;;;;5032851;28;20103;-66
2022/09/20 13:50:37;;;;;;;;;;;16.60;99.90;;;;;;5032914;28;20040;-65
2022/09/20 13:53:14;;;;;;;6.13;1.30;;;16.60;97.60;;;;;;5033243;28;19970;-66
2022/09/20 13:55:42;;;;;;;3.88;1.00;;;16.50;99.90;;;;;;5031692;28;20117;-66
2022/09/20 13:58:31;;;;;;;2.63;1.02;;;16.40;99.90;;;;;;5032378;28;20037;-66
2022/09/20 14:00:59;;;;;;;8.18;1.20;;;16.30;98.50;;;;;;5025931;28;20403;-66